Time;durP1;ratioP1;P1;durP2;ratioP2;P2;SDS_P1;SDS_P2;PMS_P1;PMS_P2;Temp;Humidity;BMP_temperature;BMP_pressure;BME280_temperature;BME280_humidity;BME280_pressure;Samples;Min_cycle;Max_cycle;Signal;HPM_P1;HPM_P2
2022/09/07 00:00:39;;;;;;;2.00;1.70;;;;;;;;;;5008124;28;20258;-56
2022/09/07 00:03:05;;;;;;;1.73;1.55;;;;;;;;;;5011197;28;20200;-55
2022/09/07 00:05:32;;;;;;;3.60;1.90;;;;;;;;;;5004754;28;20219;-53
2022/09/07 00:07:59;;;;;;;2.50;1.67;;;;;;;;;;5004903;28;20793;-50
2022/09/07 00:10:25;;;;;;;2.58;2.00;;;;;;;;;;5009206;28;20434;-55
2022/09/07 00:12:52;;;;;;;6.35;1.90;;;;;;;;;;5008166;28;20216;-55
2022/09/07 00:15:18;;;;;;;1.90;1.70;;;;;;;;;;5002607;28;20200;-54
2022/09/07 00:17:45;;;;;;;2.22;1.65;;;;;;;;;;5005201;28;20220;-55
2022/09/07 00:20:11;;;;;;;2.08;1.70;;;;;;;;;;5009331;28;20656;-54
2022/09/07 00:22:38;;;;;;;2.35;1.80;;;;;;;;;;5006911;28;20427;-57
2022/09/07 00:25:05;;;;;;;2.08;1.65;;;;;;;;;;5014925;28;20274;-56
2022/09/07 00:27:31;;;;;;;2.38;1.80;;;;;;;;;;5011524;28;20220;-55
2022/09/07 00:29:58;;;;;;;2.60;1.88;;;;;;;;;;5019853;28;20219;-51
2022/09/07 00:32:24;;;;;;;2.58;1.48;;;;;;;;;;5006317;28;20451;-57
2022/09/07 00:34:50;;;;;;;3.60;1.73;;;;;;;;;;5009117;28;20426;-54
2022/09/07 00:37:17;;;;;;;3.15;1.80;;;;;;;;;;5007891;28;20200;-54
2022/09/07 00:39:43;;;;;;;3.90;1.55;;;;;;;;;;5002209;28;20242;-57
2022/09/07 00:42:10;;;;;;;2.83;2.00;;;;;;;;;;5003080;28;20200;-57
2022/09/07 00:45:11;;;;;;;6.50;2.05;;;;;;;;;;5008977;28;20204;-56
2022/09/07 00:47:37;;;;;;;3.13;2.00;;;;;;;;;;5010530;28;20255;-50
2022/09/07 00:50:15;;;;;;;3.38;1.90;;;;;;;;;;5003834;28;20203;-54
2022/09/07 00:52:43;;;;;;;3.00;2.13;;;;;;;;;;5004786;28;20250;-55
2022/09/07 00:55:11;;;;;;;4.93;2.10;;;;;;;;;;5007940;28;20641;-54
2022/09/07 00:57:40;;;;;;;3.60;2.20;;;;;;;;;;5002448;28;20227;-56
2022/09/07 01:00:08;;;;;;;4.28;1.90;;;;;;;;;;5004662;28;20262;-56
2022/09/07 01:02:34;;;;;;;4.15;2.10;;;;;;;;;;5008945;28;20457;-55
2022/09/07 01:05:06;;;;;;;3.27;2.47;;;;;;;;;;5016062;28;20672;-54
2022/09/07 01:07:35;;;;;;;3.63;2.30;;;;;;;;;;5005265;28;20282;-55
2022/09/07 01:10:02;;;;;;;5.22;2.40;;;;;;;;;;5002177;28;20200;-55
2022/09/07 01:12:30;;;;;;;4.78;2.70;;;;;;;;;;5008934;28;20208;-56
2022/09/07 01:14:56;;;;;;;4.80;2.10;;;;;;;;;;5003792;28;20300;-55
2022/09/07 01:17:33;;;;;;;3.55;2.20;;;;;;;;;;5009369;28;20605;-51
2022/09/07 01:20:24;;;;;;;4.25;2.15;;;;;;;;;;5005091;28;20672;-56
2022/09/07 01:23:13;;;;;;;3.08;1.95;;;;;;;;;;5005388;28;20203;-55
2022/09/07 01:25:58;;;;;;;4.32;2.20;;;;;;;;;;5004711;28;20227;-55
2022/09/07 01:28:26;;;;;;;3.30;2.10;;;;;;;;;;5007033;28;20216;-56
2022/09/07 01:31:02;;;;;;;4.88;2.08;;;;;;;;;;5001018;28;20203;-56
2022/09/07 01:33:56;;;;;;;3.47;1.88;;;;;;;;;;4998844;28;20201;-56
2022/09/07 01:36:44;;;;;;;3.38;2.03;;;;;;;;;;5002927;28;20199;-55
2022/09/07 01:39:11;;;;;;;4.88;2.40;;;;;;;;;;5002275;28;20220;-58
2022/09/07 01:41:51;;;;;;;3.65;1.92;;;;;;;;;;5001166;28;20213;-52
2022/09/07 01:44:24;;;;;;;4.50;2.38;;;;;;;;;;5008023;28;20648;-57
2022/09/07 01:46:59;;;;;;;2.47;2.25;;;;;;;;;;5014458;28;20263;-56
2022/09/07 01:49:29;;;;;;;3.55;2.10;;;;;;;;;;5017745;28;20282;-56
2022/09/07 01:52:04;;;;;;;4.18;2.28;;;;;;;;;;5009368;28;20215;-57
2022/09/07 01:54:34;;;;;;;4.63;2.30;;;;;;;;;;5001914;28;20207;-54
2022/09/07 01:57:03;;;;;;;3.90;2.30;;;;;;;;;;5005987;28;20259;-55
2022/09/07 01:59:37;;;;;;;2.90;2.20;;;;;;;;;;5006323;28;20250;-54
2022/09/07 02:02:06;;;;;;;3.10;1.90;;;;;;;;;;5007411;28;20196;-56
2022/09/07 02:04:46;;;;;;;2.50;2.17;;;;;;;;;;5006218;28;20675;-54
2022/09/07 02:07:24;;;;;;;2.97;2.30;;;;;;;;;;5003401;28;20274;-52
2022/09/07 02:10:14;;;;;;;4.18;2.17;;;;;;;;;;5004212;28;20200;-51
2022/09/07 02:12:43;;;;;;;4.13;2.50;;;;;;;;;;5003743;28;20201;-54
2022/09/07 02:15:15;;;;;;;4.57;2.38;;;;;;;;;;5007816;28;20199;-51
2022/09/07 02:17:45;;;;;;;4.50;2.55;;;;;;;;;;5002020;28;20730;-56
2022/09/07 02:20:16;;;;;;;7.28;3.13;;;;;;;;;;5005554;28;20206;-53
2022/09/07 02:22:45;;;;;;;8.50;2.90;;;;;;;;;;5004772;28;20711;-52
2022/09/07 02:25:18;;;;;;;4.45;3.38;;;;;;;;;;5005187;28;20208;-53
2022/09/07 02:27:47;;;;;;;6.55;3.35;;;;;;;;;;5000263;28;20473;-52
2022/09/07 02:30:14;;;;;;;4.78;3.20;;;;;;;;;;5016050;28;20683;-55
2022/09/07 02:32:40;;;;;;;5.82;3.10;;;;;;;;;;4997921;28;20220;-55
2022/09/07 02:35:08;;;;;;;5.45;3.15;;;;;;;;;;5005952;28;20203;-54
2022/09/07 02:37:35;;;;;;;4.15;2.65;;;;;;;;;;5006110;28;20220;-56
2022/09/07 02:40:02;;;;;;;4.00;2.90;;;;;;;;;;5002448;28;20676;-55
2022/09/07 02:42:31;;;;;;;4.88;3.22;;;;;;;;;;5004201;28;20209;-53
2022/09/07 02:44:59;;;;;;;3.72;2.88;;;;;;;;;;5000889;28;20193;-52
2022/09/07 02:47:44;;;;;;;6.00;3.30;;;;;;;;;;5005228;28;20603;-51
2022/09/07 02:50:38;;;;;;;5.57;3.03;;;;;;;;;;4999693;28;20219;-54
2022/09/07 02:53:22;;;;;;;7.05;2.78;;;;;;;;;;5007230;28;20192;-54
2022/09/07 02:56:21;;;;;;;4.10;2.47;;;;;;;;;;5008079;28;20192;-53
2022/09/07 02:59:00;;;;;;;4.22;2.50;;;;;;;;;;5015958;28;20720;-51
2022/09/07 03:01:54;;;;;;;3.67;2.47;;;;;;;;;;5010221;28;20227;-53
2022/09/07 03:04:24;;;;;;;5.05;2.30;;;;;;;;;;5007158;28;20208;-55
2022/09/07 03:06:59;;;;;;;5.13;3.05;;;;;;;;;;5010450;28;20636;-53
2022/09/07 03:09:29;;;;;;;3.20;2.53;;;;;;;;;;5002591;28;20222;-53
2022/09/07 03:11:55;;;;;;;5.30;3.00;;;;;;;;;;5011437;28;20200;-54
2022/09/07 03:14:24;;;;;;;5.15;3.00;;;;;;;;;;5006370;28;20205;-54
2022/09/07 03:16:54;;;;;;;4.78;2.45;;;;;;;;;;5007971;28;20219;-52
2022/09/07 03:19:20;;;;;;;5.60;2.42;;;;;;;;;;4998842;28;20224;-54
2022/09/07 03:21:47;;;;;;;3.47;2.80;;;;;;;;;;5007097;28;20712;-51
2022/09/07 03:24:13;;;;;;;5.45;3.08;;;;;;;;;;5004208;28;20200;-53
2022/09/07 03:26:45;;;;;;;5.22;3.30;;;;;;;;;;5013781;28;20707;-55
2022/09/07 03:29:11;;;;;;;5.07;3.30;;;;;;;;;;5005295;28;20252;-52
2022/09/07 03:31:38;;;;;;;4.55;2.78;;;;;;;;;;5005663;28;20197;-52
2022/09/07 03:34:04;;;;;;;6.20;2.70;;;;;;;;;;5004871;28;20414;-54
2022/09/07 03:36:31;;;;;;;6.30;3.13;;;;;;;;;;5009069;28;20742;-53
2022/09/07 03:38:58;;;;;;;3.65;2.80;;;;;;;;;;5008771;28;20215;-50
2022/09/07 03:41:25;;;;;;;3.80;3.28;;;;;;;;;;4997977;28;20200;-53
2022/09/07 03:43:52;;;;;;;4.40;2.33;;;;;;;;;;5007143;28;20250;-55
2022/09/07 03:46:18;;;;;;;7.28;2.92;;;;;;;;;;5006864;28;20228;-55
2022/09/07 03:48:46;;;;;;;5.30;3.70;;;;;;;;;;5007359;28;20794;-58
2022/09/07 03:51:14;;;;;;;4.28;3.08;;;;;;;;;;5005359;28;20196;-55
2022/09/07 03:53:43;;;;;;;5.10;3.63;;;;;;;;;;5007639;28;20255;-57
2022/09/07 03:56:12;;;;;;;5.10;3.30;;;;;;;;;;5002913;28;20201;-54
2022/09/07 03:58:39;;;;;;;4.43;2.45;;;;;;;;;;5006828;28;20242;-54
2022/09/07 04:01:08;;;;;;;5.97;2.90;;;;;;;;;;5009512;28;20200;-52
2022/09/07 04:03:35;;;;;;;2.97;2.30;;;;;;;;;;5009006;28;20290;-51
2022/09/07 04:06:02;;;;;;;6.65;3.45;;;;;;;;;;5007569;28;20208;-55
2022/09/07 04:08:31;;;;;;;3.83;2.42;;;;;;;;;;5000381;28;20834;-51
2022/09/07 04:11:02;;;;;;;3.20;2.20;;;;;;;;;;5005917;28;20200;-51
2022/09/07 04:13:29;;;;;;;6.47;3.13;;;;;;;;;;5002942;28;20211;-51
2022/09/07 04:15:56;;;;;;;6.97;3.47;;;;;;;;;;5008499;28;20203;-53
2022/09/07 04:18:23;;;;;;;7.15;3.40;;;;;;;;;;5005430;28;20239;-55
2022/09/07 04:20:49;;;;;;;5.85;3.83;;;;;;;;;;5006722;28;20192;-54
2022/09/07 04:23:17;;;;;;;5.88;3.70;;;;;;;;;;5003172;28;20209;-57
2022/09/07 04:25:47;;;;;;;4.22;2.83;;;;;;;;;;5010823;28;20200;-55
2022/09/07 04:28:15;;;;;;;6.43;3.42;;;;;;;;;;5005558;28;20270;-56
2022/09/07 04:30:41;;;;;;;6.18;3.47;;;;;;;;;;5004845;28;20197;-51
2022/09/07 04:33:08;;;;;;;5.72;3.30;;;;;;;;;;5010711;28;20203;-54
2022/09/07 04:35:36;;;;;;;2.83;2.40;;;;;;;;;;5006612;28;20200;-51
2022/09/07 04:38:03;;;;;;;5.72;3.65;;;;;;;;;;5002530;28;20266;-54
2022/09/07 04:40:29;;;;;;;6.68;3.83;;;;;;;;;;5005816;28;20271;-50
2022/09/07 04:42:55;;;;;;;5.15;3.20;;;;;;;;;;5000940;28;20267;-51
2022/09/07 04:45:22;;;;;;;6.70;3.72;;;;;;;;;;5004838;28;20652;-52
2022/09/07 04:47:48;;;;;;;4.20;3.00;;;;;;;;;;5007727;28;20235;-52
2022/09/07 04:50:16;;;;;;;6.55;3.70;;;;;;;;;;5005998;28;20741;-52
2022/09/07 04:52:43;;;;;;;5.32;3.60;;;;;;;;;;5010760;28;20204;-53
2022/09/07 04:55:10;;;;;;;4.30;3.00;;;;;;;;;;5008932;28;20199;-53
2022/09/07 04:57:37;;;;;;;5.75;3.63;;;;;;;;;;5007384;28;21849;-54
2022/09/07 05:00:10;;;;;;;3.05;2.67;;;;;;;;;;5003964;28;20192;-53
2022/09/07 05:02:37;;;;;;;4.30;3.00;;;;;;;;;;4997789;28;20677;-51
2022/09/07 05:05:05;;;;;;;4.90;2.60;;;;;;;;;;5005693;28;20200;-54
2022/09/07 05:07:31;;;;;;;3.78;2.85;;;;;;;;;;5005236;28;20233;-55
2022/09/07 05:09:58;;;;;;;5.22;3.03;;;;;;;;;;4998868;28;20201;-52
2022/09/07 05:12:24;;;;;;;5.85;4.45;;;;;;;;;;4996928;28;20248;-52
2022/09/07 05:14:50;;;;;;;4.57;2.75;;;;;;;;;;5003797;28;20204;-51
2022/09/07 05:17:18;;;;;;;4.85;2.80;;;;;;;;;;5003245;28;20258;-51
2022/09/07 05:19:44;;;;;;;5.55;3.08;;;;;;;;;;5007338;28;20212;-53
2022/09/07 05:22:10;;;;;;;4.40;2.72;;;;;;;;;;5009741;28;20234;-52
2022/09/07 05:24:37;;;;;;;5.72;3.85;;;;;;;;;;5007201;28;20219;-58
2022/09/07 05:27:03;;;;;;;5.82;3.92;;;;;;;;;;5002102;28;20278;-51
2022/09/07 05:29:30;;;;;;;4.35;3.67;;;;;;;;;;5004023;28;20609;-54
2022/09/07 05:32:16;;;;;;;5.57;3.72;;;;;;;;;;5004306;28;20205;-52
2022/09/07 05:34:43;;;;;;;7.47;3.70;;;;;;;;;;4998267;28;20204;-53
2022/09/07 05:37:09;;;;;;;4.85;3.58;;;;;;;;;;4999015;28;20255;-49
2022/09/07 05:39:35;;;;;;;6.70;3.58;;;;;;;;;;5004926;28;20200;-55
2022/09/07 05:42:02;;;;;;;6.57;4.00;;;;;;;;;;4994461;28;20208;-55
2022/09/07 05:44:30;;;;;;;9.13;3.67;;;;;;;;;;5003627;28;20201;-55
2022/09/07 05:47:12;;;;;;;7.20;4.07;;;;;;;;;;5003441;28;20622;-55
2022/09/07 05:49:39;;;;;;;4.93;3.25;;;;;;;;;;5001433;28;20204;-58
2022/09/07 05:52:05;;;;;;;6.18;3.53;;;;;;;;;;5004171;28;20256;-57
2022/09/07 05:54:32;;;;;;;7.03;3.60;;;;;;;;;;5005908;28;20609;-57
2022/09/07 05:56:58;;;;;;;3.83;3.42;;;;;;;;;;5006758;28;20192;-56
2022/09/07 05:59:25;;;;;;;7.03;3.55;;;;;;;;;;4999268;28;20225;-58
2022/09/07 06:01:51;;;;;;;6.38;3.25;;;;;;;;;;4995041;28;20299;-57
2022/09/07 06:04:18;;;;;;;5.68;3.47;;;;;;;;;;4995362;28;20573;-55
2022/09/07 06:06:44;;;;;;;4.85;3.60;;;;;;;;;;5002030;28;20248;-58
2022/09/07 06:09:31;;;;;;;3.65;2.95;;;;;;;;;;5007703;28;20234;-59
2022/09/07 06:11:57;;;;;;;7.57;3.88;;;;;;;;;;5008523;28;20287;-54
2022/09/07 06:14:24;;;;;;;5.97;3.88;;;;;;;;;;4999411;28;20208;-54
2022/09/07 06:16:50;;;;;;;6.93;3.65;;;;;;;;;;5003736;28;20188;-54
2022/09/07 06:19:17;;;;;;;5.38;3.30;;;;;;;;;;5016374;28;20743;-55
2022/09/07 06:21:43;;;;;;;5.60;3.70;;;;;;;;;;5008562;28;20207;-56
2022/09/07 06:24:10;;;;;;;6.85;3.67;;;;;;;;;;5000902;28;20211;-56
2022/09/07 06:26:36;;;;;;;5.65;3.10;;;;;;;;;;4996055;28;20267;-55
2022/09/07 06:29:02;;;;;;;4.70;3.00;;;;;;;;;;5008232;28;21033;-52
2022/09/07 06:31:29;;;;;;;4.43;2.88;;;;;;;;;;5006372;28;20211;-55
2022/09/07 06:33:56;;;;;;;6.00;3.33;;;;;;;;;;5006930;28;20208;-56
2022/09/07 06:36:26;;;;;;;5.97;3.17;;;;;;;;;;5007312;28;20218;-53
2022/09/07 06:38:57;;;;;;;9.23;3.78;;;;;;;;;;5006556;28;20220;-56
2022/09/07 06:41:26;;;;;;;6.20;3.67;;;;;;;;;;5005890;28;20656;-57
2022/09/07 06:44:12;;;;;;;8.30;4.05;;;;;;;;;;5005334;28;20258;-53
2022/09/07 06:46:38;;;;;;;6.28;4.20;;;;;;;;;;5003401;28;20201;-53
2022/09/07 06:49:25;;;;;;;8.25;4.75;;;;;;;;;;5006279;28;20216;-56
2022/09/07 06:51:51;;;;;;;7.53;4.00;;;;;;;;;;5007182;28;20200;-53
2022/09/07 06:54:18;;;;;;;6.22;4.15;;;;;;;;;;5008156;28;20571;-59
2022/09/07 06:57:07;;;;;;;6.45;4.30;;;;;;;;;;5003671;28;20192;-58
2022/09/07 06:59:34;;;;;;;5.32;3.53;;;;;;;;;;5004992;28;20236;-57
2022/09/07 07:02:01;;;;;;;3.95;2.97;;;;;;;;;;5006337;28;20718;-58
2022/09/07 07:04:27;;;;;;;4.50;3.50;;;;;;;;;;4969832;28;20594;-55
2022/09/07 07:06:53;;;;;;;5.95;3.28;;;;;;;;;;5023000;28;20235;-57
2022/09/07 07:09:20;;;;;;;4.15;2.92;;;;;;;;;;5003932;28;20676;-56
2022/09/07 07:11:47;;;;;;;5.40;3.15;;;;;;;;;;5004145;28;20188;-53
2022/09/07 07:14:14;;;;;;;6.20;3.22;;;;;;;;;;5006868;28;20200;-56
2022/09/07 07:16:40;;;;;;;5.10;3.15;;;;;;;;;;5009243;28;20227;-58
2022/09/07 07:19:07;;;;;;;4.13;3.00;;;;;;;;;;5005419;28;20566;-57
2022/09/07 07:21:33;;;;;;;3.97;3.03;;;;;;;;;;4998536;28;20484;-54
2022/09/07 07:24:19;;;;;;;4.03;2.78;;;;;;;;;;5006284;28;20300;-57
2022/09/07 07:26:47;;;;;;;5.47;2.95;;;;;;;;;;5004014;28;20208;-55
2022/09/07 07:29:13;;;;;;;3.30;2.55;;;;;;;;;;5001440;28;20220;-57
2022/09/07 07:31:44;;;;;;;2.83;2.30;;;;;;;;;;5002801;28;20197;-56
2022/09/07 07:34:10;;;;;;;4.30;2.53;;;;;;;;;;5000978;28;20204;-57
2022/09/07 07:36:37;;;;;;;5.75;2.53;;;;;;;;;;5004608;28;20604;-58
2022/09/07 07:39:04;;;;;;;4.88;2.47;;;;;;;;;;5007049;28;20306;-57
2022/09/07 07:41:31;;;;;;;3.40;2.70;;;;;;;;;;5010012;28;20204;-58
2022/09/07 07:44:17;;;;;;;4.15;2.80;;;;;;;;;;5004971;28;20676;-60
2022/09/07 07:46:46;;;;;;;5.90;2.88;;;;;;;;;;5005787;28;20231;-60
2022/09/07 07:49:13;;;;;;;4.95;2.60;;;;;;;;;;5009529;28;20244;-60
2022/09/07 07:51:39;;;;;;;5.45;2.55;;;;;;;;;;5003379;28;20287;-59
2022/09/07 07:54:26;;;;;;;3.35;2.30;;;;;;;;;;5001018;28;20664;-60
2022/09/07 07:56:52;;;;;;;4.03;2.30;;;;;;;;;;5008086;28;20633;-59
2022/09/07 07:59:18;;;;;;;4.25;2.22;;;;;;;;;;5007139;28;20303;-59
2022/09/07 08:01:45;;;;;;;5.85;2.30;;;;;;;;;;5002297;28;20636;-57
2022/09/07 08:04:11;;;;;;;4.28;2.20;;;;;;;;;;5005151;28;20219;-58
2022/09/07 08:06:41;;;;;;;3.85;2.10;;;;;;;;;;5004140;28;20287;-54
2022/09/07 08:09:07;;;;;;;2.78;2.25;;;;;;;;;;4999764;28;20314;-58
2022/09/07 08:11:34;;;;;;;5.18;2.10;;;;;;;;;;4996741;28;20291;-59
2022/09/07 08:14:03;;;;;;;5.30;2.20;;;;;;;;;;5010477;28;20287;-58
2022/09/07 08:16:30;;;;;;;2.70;2.20;;;;;;;;;;5004088;28;20279;-57
2022/09/07 08:18:56;;;;;;;4.65;2.78;;;;;;;;;;4997652;28;20219;-58
2022/09/07 08:21:24;;;;;;;3.45;2.08;;;;;;;;;;5003800;28;20284;-59
2022/09/07 08:23:50;;;;;;;4.45;2.60;;;;;;;;;;5010408;28;20298;-60
2022/09/07 08:26:16;;;;;;;3.67;2.38;;;;;;;;;;5007323;28;20287;-61
2022/09/07 08:28:44;;;;;;;5.57;2.13;;;;;;;;;;5009509;28;20228;-60
2022/09/07 08:31:12;;;;;;;3.17;2.42;;;;;;;;;;5002958;28;20292;-60
2022/09/07 08:33:39;;;;;;;3.10;2.55;;;;;;;;;;4996705;28;20197;-61
2022/09/07 08:36:09;;;;;;;3.50;2.50;;;;;;;;;;5002616;28;20246;-60
2022/09/07 08:38:36;;;;;;;4.15;2.00;;;;;;;;;;5032150;28;20212;-60
2022/09/07 08:41:25;;;;;;;3.90;2.38;;;;;;;;;;5002483;28;20660;-59
2022/09/07 08:43:57;;;;;;;3.13;2.35;;;;;;;;;;4998722;28;20283;-61
2022/09/07 08:46:48;;;;;;;3.40;2.33;;;;;;;;;;5017334;28;20239;-63
2022/09/07 08:49:19;;;;;;;2.85;2.38;;;;;;;;;;5009911;28;20648;-61
2022/09/07 08:51:53;;;;;;;4.18;2.50;;;;;;;;;;5002636;28;20295;-61
2022/09/07 08:54:19;;;;;;;4.88;2.17;;;;;;;;;;5006768;28;20288;-60
2022/09/07 08:56:49;;;;;;;3.15;2.08;;;;;;;;;;5006696;28;20235;-58
2022/09/07 08:59:47;;;;;;;6.68;2.28;;;;;;;;;;5007399;28;20584;-60
2022/09/07 09:02:16;;;;;;;5.82;2.05;;;;;;;;;;5007665;28;20283;-63
2022/09/07 09:05:03;;;;;;;5.60;2.10;;;;;;;;;;5008293;28;20200;-62
2022/09/07 09:08:09;;;;;;;3.45;2.40;;;;;;;;;;5018351;28;20265;-63
2022/09/07 09:10:55;;;;;;;6.13;2.40;;;;;;;;;;5006342;28;20287;-63
2022/09/07 09:13:38;;;;;;;2.78;2.20;;;;;;;;;;5005537;28;20686;-63
2022/09/07 09:16:13;;;;;;;6.53;2.10;;;;;;;;;;5039922;28;20265;-63
2022/09/07 09:18:55;;;;;;;4.13;2.03;;;;;;;;;;5005730;28;20211;-57
2022/09/07 09:21:21;;;;;;;2.22;2.00;;;;;;;;;;5007868;28;20286;-54
2022/09/07 09:23:51;;;;;;;4.35;2.22;;;;;;;;;;5001987;28;20207;-58
2022/09/07 09:26:23;;;;;;;3.38;2.10;;;;;;;;;;5001905;28;20196;-59
2022/09/07 09:28:49;;;;;;;5.10;2.58;;;;;;;;;;5008141;28;20322;-57
2022/09/07 09:31:19;;;;;;;4.55;2.20;;;;;;;;;;5002622;28;20203;-58
2022/09/07 09:34:04;;;;;;;3.90;2.38;;;;;;;;;;5003074;28;20742;-60
2022/09/07 09:36:34;;;;;;;4.38;2.00;;;;;;;;;;5005824;28;20270;-55
2022/09/07 09:39:00;;;;;;;4.82;2.25;;;;;;;;;;5008025;28;20339;-57
2022/09/07 09:41:35;;;;;;;4.72;2.08;;;;;;;;;;4998970;28;20207;-59
2022/09/07 09:44:02;;;;;;;3.58;1.80;;;;;;;;;;4996735;28;20286;-59
2022/09/07 09:46:34;;;;;;;3.97;2.13;;;;;;;;;;4996568;28;20287;-60
2022/09/07 09:49:05;;;;;;;3.42;1.90;;;;;;;;;;5035743;28;20237;-59
2022/09/07 09:51:33;;;;;;;4.07;2.20;;;;;;;;;;5017106;28;20287;-59
2022/09/07 09:54:32;;;;;;;3.85;2.25;;;;;;;;;;5015231;28;20579;-59
2022/09/07 09:56:59;;;;;;;1.95;1.55;;;;;;;;;;5038309;28;20286;-55
2022/09/07 09:59:28;;;;;;;2.70;1.70;;;;;;;;;;5035065;28;20307;-59
2022/09/07 10:02:29;;;;;;;6.47;2.45;;;;;;;;;;5008300;28;20191;-60
2022/09/07 10:05:33;;;;;;;2.92;1.95;;;;;;;;;;5006240;28;20591;-58
2022/09/07 10:07:59;;;;;;;4.07;2.00;;;;;;;;;;5004042;28;20695;-58
2022/09/07 10:10:27;;;;;;;2.97;1.90;;;;;;;;;;5002392;28;20292;-58
2022/09/07 10:12:54;;;;;;;5.78;2.00;;;;;;;;;;5006318;28;20219;-57
2022/09/07 10:15:34;;;;;;;3.55;2.20;;;;;;;;;;5006030;28;20284;-58
2022/09/07 10:18:13;;;;;;;3.50;2.17;;;;;;;;;;4993498;28;20226;-60
2022/09/07 10:20:40;;;;;;;3.40;2.03;;;;;;;;;;5004801;28;20262;-58
2022/09/07 10:23:18;;;;;;;2.58;2.10;;;;;;;;;;5019356;28;20279;-56
2022/09/07 10:25:46;;;;;;;6.20;2.33;;;;;;;;;;5021519;28;20290;-60
2022/09/07 10:28:18;;;;;;;6.35;2.40;;;;;;;;;;5014704;28;20302;-58
2022/09/07 10:31:03;;;;;;;3.75;2.40;;;;;;;;;;5006488;28;20192;-57
2022/09/07 10:33:51;;;;;;;3.05;2.35;;;;;;;;;;5007861;28;20335;-57
2022/09/07 10:37:01;;;;;;;4.38;2.47;;;;;;;;;;5002718;28;20200;-56
2022/09/07 10:39:34;;;;;;;3.90;2.42;;;;;;;;;;4998388;28;20225;-60
2022/09/07 10:42:09;;;;;;;3.33;2.20;;;;;;;;;;4995182;28;20197;-58
2022/09/07 10:45:01;;;;;;;3.58;2.20;;;;;;;;;;5000450;28;20708;-57
2022/09/07 10:47:51;;;;;;;3.25;2.30;;;;;;;;;;5022883;28;20323;-57
2022/09/07 10:50:31;;;;;;;4.43;2.83;;;;;;;;;;5008765;28;20204;-58
2022/09/07 10:53:04;;;;;;;7.72;2.42;;;;;;;;;;5021610;28;20227;-55
2022/09/07 10:56:02;;;;;;;3.63;2.40;;;;;;;;;;5008651;28;20691;-59
2022/09/07 10:58:53;;;;;;;3.42;2.40;;;;;;;;;;5023108;28;20254;-56
2022/09/07 11:01:38;;;;;;;4.90;2.30;;;;;;;;;;5006278;28;20291;-60
2022/09/07 11:04:19;;;;;;;4.78;2.45;;;;;;;;;;5003776;28;20236;-59
2022/09/07 11:06:51;;;;;;;3.03;2.20;;;;;;;;;;5000959;28;20208;-58
2022/09/07 11:09:30;;;;;;;7.38;2.60;;;;;;;;;;5016662;28;20657;-59
2022/09/07 11:12:02;;;;;;;6.00;2.40;;;;;;;;;;5006157;28;20298;-59
2022/09/07 11:14:47;;;;;;;3.63;2.50;;;;;;;;;;5013121;28;20204;-58
2022/09/07 11:17:20;;;;;;;4.85;2.33;;;;;;;;;;5006200;28;20283;-56
2022/09/07 11:20:10;;;;;;;4.78;2.55;;;;;;;;;;5038697;28;20259;-60
2022/09/07 11:22:44;;;;;;;5.28;3.38;;;;;;;;;;5036331;28;20310;-58
2022/09/07 11:25:20;;;;;;;4.05;2.50;;;;;;;;;;5003958;28;20258;-59
2022/09/07 11:28:25;;;;;;;7.72;2.67;;;;;;;;;;5004737;28;20220;-56
2022/09/07 11:30:57;;;;;;;4.93;2.80;;;;;;;;;;5000208;28;20215;-58
2022/09/07 11:33:33;;;;;;;4.20;2.65;;;;;;;;;;5006440;28;20210;-57
2022/09/07 11:36:04;;;;;;;5.30;3.10;;;;;;;;;;5005148;28;20287;-60
2022/09/07 11:38:45;;;;;;;4.85;2.65;;;;;;;;;;5006844;28;20583;-58
2022/09/07 11:41:20;;;;;;;5.60;2.60;;;;;;;;;;5008613;28;20279;-58
2022/09/07 11:43:59;;;;;;;5.65;2.70;;;;;;;;;;5013525;28;20282;-60
2022/09/07 11:46:39;;;;;;;5.65;2.53;;;;;;;;;;5000555;28;20283;-59
2022/09/07 11:49:13;;;;;;;4.25;2.58;;;;;;;;;;5015961;28;20694;-58
2022/09/07 11:52:03;;;;;;;3.28;2.13;;;;;;;;;;5002835;28;20682;-58
2022/09/07 11:54:49;;;;;;;5.28;2.45;;;;;;;;;;4998475;28;20204;-59
2022/09/07 11:57:37;;;;;;;4.68;2.50;;;;;;;;;;5010149;28;20232;-58
2022/09/07 12:00:17;;;;;;;3.08;2.35;;;;;;;;;;5006371;28;20295;-60
2022/09/07 12:03:10;;;;;;;6.25;2.78;;;;;;;;;;5013644;28;20308;-59
2022/09/07 12:05:52;;;;;;;7.30;2.90;;;;;;;;;;5033234;28;20700;-59
2022/09/07 12:08:49;;;;;;;4.07;2.88;;;;;;;;;;5004899;28;20324;-58
2022/09/07 12:11:28;;;;;;;5.50;2.60;;;;;;;;;;5001722;28;22049;-59
2022/09/07 12:14:00;;;;;;;4.80;2.53;;;;;;;;;;5031331;28;20279;-60
2022/09/07 12:17:09;;;;;;;3.85;2.50;;;;;;;;;;4999727;28;20299;-57
2022/09/07 12:19:35;;;;;;;5.82;2.38;;;;;;;;;;5019375;28;20279;-55
2022/09/07 12:22:02;;;;;;;4.03;3.13;;;;;;;;;;5002450;28;20720;-61
2022/09/07 12:24:42;;;;;;;3.33;2.45;;;;;;;;;;5007629;28;20299;-60
2022/09/07 12:27:09;;;;;;;6.30;2.72;;;;;;;;;;5004211;28;20606;-60
2022/09/07 12:29:36;;;;;;;3.47;2.28;;;;;;;;;;5013354;28;20267;-58
2022/09/07 12:32:03;;;;;;;3.42;2.25;;;;;;;;;;5004691;28;20287;-58
2022/09/07 12:34:52;;;;;;;4.50;2.60;;;;;;;;;;5003056;28;20212;-59
2022/09/07 12:37:37;;;;;;;4.93;2.20;;;;;;;;;;5003892;28;20220;-60
2022/09/07 12:40:31;;;;;;;2.70;2.10;;;;;;;;;;5001032;28;20286;-57
2022/09/07 12:43:13;;;;;;;4.57;2.00;;;;;;;;;;4983132;28;20300;-55
2022/09/07 12:45:39;;;;;;;2.53;1.70;;;;;;;;;;4999048;28;20235;-59
2022/09/07 12:48:21;;;;;;;2.83;1.67;;;;;;;;;;5006598;28;20240;-58
2022/09/07 12:51:06;;;;;;;2.97;1.42;;;;;;;;;;5000346;28;20288;-59
2022/09/07 12:54:03;;;;;;;1.58;1.48;;;;;;;;;;5006791;28;20196;-60
2022/09/07 12:57:07;;;;;;;4.38;1.52;;;;;;;;;;5006025;28;20208;-56
2022/09/07 12:59:59;;;;;;;2.83;1.50;;;;;;;;;;5007162;28;20414;-55
2022/09/07 13:02:49;;;;;;;4.47;1.70;;;;;;;;;;5006104;28;20231;-55
2022/09/07 13:05:35;;;;;;;2.80;1.50;;;;;;;;;;5024117;28;20469;-55
2022/09/07 13:08:26;;;;;;;1.98;1.65;;;;;;;;;;5007115;28;20303;-55
2022/09/07 13:10:52;;;;;;;4.47;1.58;;;;;;;;;;5000950;28;20215;-54
2022/09/07 13:13:26;;;;;;;2.13;1.60;;;;;;;;;;5006798;28;20259;-54
2022/09/07 13:16:12;;;;;;;3.08;1.60;;;;;;;;;;5013726;28;20196;-57
2022/09/07 13:18:45;;;;;;;4.95;1.70;;;;;;;;;;4997434;28;20263;-56
2022/09/07 13:21:12;;;;;;;3.65;1.65;;;;;;;;;;5003035;28;20231;-56
2022/09/07 13:23:41;;;;;;;3.70;1.73;;;;;;;;;;5006289;28;20754;-58
2022/09/07 13:26:11;;;;;;;2.85;1.80;;;;;;;;;;5003001;28;20303;-57
2022/09/07 13:29:05;;;;;;;3.28;1.77;;;;;;;;;;5006144;28;20224;-58
2022/09/07 13:31:57;;;;;;;2.70;1.75;;;;;;;;;;5008736;28;20694;-58
2022/09/07 13:34:33;;;;;;;2.10;1.75;;;;;;;;;;5030135;28;20297;-57
2022/09/07 13:37:00;;;;;;;2.78;1.90;;;;;;;;;;4998046;28;20196;-57
2022/09/07 13:39:27;;;;;;;2.25;1.63;;;;;;;;;;5002643;28;20220;-56
2022/09/07 13:41:55;;;;;;;3.03;1.65;;;;;;;;;;5035726;28;20214;-56
2022/09/07 13:44:24;;;;;;;1.63;1.48;;;;;;;;;;5005317;28;20719;-58
2022/09/07 13:47:21;;;;;;;2.40;1.80;;;;;;;;;;5017902;28;20703;-59
2022/09/07 13:50:08;;;;;;;3.35;1.80;;;;;;;;;;4986808;28;20260;-58
2022/09/07 13:52:46;;;;;;;2.83;1.60;;;;;;;;;;5041278;28;20291;-55
2022/09/07 13:55:30;;;;;;;3.80;1.70;;;;;;;;;;5012715;28;20742;-55
2022/09/07 13:58:16;;;;;;;4.95;1.98;;;;;;;;;;5016039;28;20307;-55
2022/09/07 14:01:06;;;;;;;3.08;1.80;;;;;;;;;;4999723;28;20197;-57
2022/09/07 14:03:38;;;;;;;3.85;2.03;;;;;;;;;;4999814;28;20200;-55
2022/09/07 14:06:19;;;;;;;3.17;1.73;;;;;;;;;;4997460;28;20297;-58
2022/09/07 14:09:03;;;;;;;2.28;1.95;;;;;;;;;;5000155;28;20659;-53
2022/09/07 14:11:42;;;;;;;2.47;1.98;;;;;;;;;;5008459;28;20262;-56
2022/09/07 14:14:11;;;;;;;2.45;1.88;;;;;;;;;;4990030;28;20286;-55
2022/09/07 14:16:37;;;;;;;1.90;1.50;;;;;;;;;;5006910;28;20250;-58
2022/09/07 14:19:15;;;;;;;7.35;2.10;;;;;;;;;;5021467;28;20666;-57
2022/09/07 14:21:42;;;;;;;3.88;1.92;;;;;;;;;;5001256;28;20211;-59
2022/09/07 14:24:27;;;;;;;3.45;1.65;;;;;;;;;;5008577;28;20610;-57
2022/09/07 14:26:53;;;;;;;2.22;1.63;;;;;;;;;;5003953;28;20278;-55
2022/09/07 14:29:23;;;;;;;2.17;1.83;;;;;;;;;;5006466;28;20236;-57
2022/09/07 14:31:49;;;;;;;3.42;2.20;;;;;;;;;;4999133;28;21050;-55
2022/09/07 14:34:16;;;;;;;2.25;1.95;;;;;;;;;;5000761;28;20642;-56
2022/09/07 14:36:45;;;;;;;2.92;1.92;;;;;;;;;;5008069;28;20230;-56
2022/09/07 14:39:17;;;;;;;3.08;2.08;;;;;;;;;;5003999;28;20402;-55
2022/09/07 14:41:44;;;;;;;2.45;2.10;;;;;;;;;;5026647;28;20830;-59
2022/09/07 14:44:27;;;;;;;2.72;1.70;;;;;;;;;;5004968;28;20287;-59
2022/09/07 14:46:53;;;;;;;2.22;1.90;;;;;;;;;;5000535;28;20283;-56
2022/09/07 14:49:23;;;;;;;2.83;1.95;;;;;;;;;;4996176;28;20586;-58
2022/09/07 14:51:50;;;;;;;2.65;2.13;;;;;;;;;;5009785;28;20291;-56
2022/09/07 14:54:26;;;;;;;2.47;2.25;;;;;;;;;;5007155;28;20234;-59
2022/09/07 14:57:02;;;;;;;2.05;1.88;;;;;;;;;;5021618;28;20283;-59
2022/09/07 14:59:41;;;;;;;2.83;1.90;;;;;;;;;;5007070;28;20334;-60
2022/09/07 15:02:33;;;;;;;2.58;2.10;;;;;;;;;;5007597;28;20303;-59
2022/09/07 15:05:19;;;;;;;2.63;1.90;;;;;;;;;;5002730;28;20240;-56
2022/09/07 15:07:50;;;;;;;5.38;2.40;;;;;;;;;;5001613;28;20764;-54
2022/09/07 15:10:19;;;;;;;3.00;2.28;;;;;;;;;;5007294;28;20318;-54
2022/09/07 15:12:51;;;;;;;2.75;1.80;;;;;;;;;;5002311;28;20291;-55
2022/09/07 15:15:17;;;;;;;3.88;2.40;;;;;;;;;;5026975;28;20203;-53
2022/09/07 15:17:44;;;;;;;2.22;1.92;;;;;;;;;;5005196;28;20258;-56
2022/09/07 15:20:46;;;;;;;4.40;2.40;;;;;;;;;;4998970;28;21383;-56